createdAt,value
2023-04-30T00:01:30.976Z,374.25
2023-04-30T00:06:38.289Z,374.12
2023-04-30T00:11:45.548Z,374.54
2023-04-30T00:16:52.867Z,374.29
2023-04-30T00:22:00.293Z,374.01
2023-04-30T00:27:45.431Z,373.97
2023-04-30T00:39:42.868Z,374.83
2023-04-30T00:45:35.438Z,374.68
2023-04-30T00:51:25.981Z,375.22
2023-04-30T00:57:34.246Z,375.50
2023-04-30T01:04:02.849Z,375.59
2023-04-30T01:09:50.474Z,375.77
2023-04-30T01:22:20.564Z,375.70
2023-04-30T01:28:12.172Z,375.37
2023-04-30T01:33:58.988Z,374.75
2023-04-30T01:39:46.319Z,374.57
2023-04-30T01:45:00.488Z,374.85
2023-04-30T01:50:40.932Z,374.71
2023-04-30T01:56:24.199Z,374.92
2023-04-30T02:07:05.702Z,374.89
2023-04-30T02:08:29.572Z,374.95
2023-04-30T02:12:17.501Z,374.98
2023-04-30T02:17:46.733Z,375.46
2023-04-30T02:23:09.823Z,375.64
2023-04-30T02:28:17.711Z,375.31
2023-04-30T02:34:15.477Z,374.85
2023-04-30T02:39:23.031Z,375.12
2023-04-30T02:44:40.249Z,375.41
2023-04-30T02:50:01.008Z,375.56
2023-04-30T02:55:43.344Z,375.97
2023-04-30T03:00:50.938Z,376.63
2023-04-30T03:05:58.834Z,376.58
2023-04-30T03:13:14.105Z,376.65
2023-04-30T03:16:49.579Z,376.94
2023-04-30T03:22:47.284Z,376.97
2023-04-30T03:28:29.591Z,377.01
2023-04-30T03:34:12.025Z,377.40
2023-04-30T03:39:29.853Z,377.63
2023-04-30T03:44:40.427Z,377.71
2023-04-30T03:50:27.799Z,378.32
2023-04-30T03:56:13.029Z,378.31
2023-04-30T04:01:20.691Z,378.42
2023-04-30T04:06:28.468Z,378.65
2023-04-30T04:11:36.136Z,378.60
2023-04-30T04:16:43.991Z,377.88
2023-04-30T04:21:51.882Z,377.59
2023-04-30T04:26:59.568Z,376.77
2023-04-30T04:32:07.717Z,376.76
2023-04-30T04:37:50.092Z,376.22
2023-04-30T04:43:09.828Z,376.34
2023-04-30T04:52:26.161Z,376.08
2023-04-30T04:53:31.184Z,376.07
2023-04-30T04:58:44.761Z,376.35
2023-04-30T05:04:17.756Z,375.74
2023-04-30T05:09:59.124Z,375.62
2023-04-30T05:15:41.412Z,375.65
2023-04-30T05:20:57.402Z,375.12
2023-04-30T05:26:05.123Z,375.29
2023-04-30T05:31:22.305Z,375.12
2023-04-30T05:36:32.409Z,375.67
2023-04-30T05:41:39.906Z,375.27
2023-04-30T05:46:47.366Z,375.25
2023-04-30T05:51:54.915Z,374.88
2023-04-30T05:57:11.076Z,375.33
2023-04-30T06:02:26.295Z,375.59
2023-04-30T06:07:46.306Z,375.20
2023-04-30T06:12:53.787Z,375.27
2023-04-30T06:18:05.998Z,375.95
2023-04-30T06:23:13.322Z,375.14
2023-04-30T06:28:38.228Z,374.37
2023-04-30T06:33:40.973Z,373.85
2023-04-30T06:38:55.004Z,374.08
2023-04-30T06:44:14.851Z,374.27
2023-04-30T06:49:18.876Z,374.74
2023-04-30T06:54:49.794Z,375.06
2023-04-30T06:59:59.014Z,375.48
2023-04-30T07:05:06.585Z,375.90
2023-04-30T07:10:14.260Z,375.83
2023-04-30T07:15:39.609Z,375.99
2023-04-30T07:20:34.516Z,376.25
2023-04-30T07:26:17.186Z,376.84
2023-04-30T07:31:59.889Z,376.82
2023-04-30T07:38:04.268Z,376.75
2023-04-30T07:43:11.531Z,376.92
2023-04-30T07:48:18.754Z,377.31
2023-04-30T07:53:25.997Z,377.87
2023-04-30T07:58:33.236Z,378.03
2023-04-30T08:03:40.765Z,378.24
2023-04-30T08:08:48.825Z,378.39
2023-04-30T08:13:55.301Z,378.10
2023-04-30T08:19:02.516Z,378.38
2023-04-30T08:24:16.009Z,378.78
2023-04-30T08:29:23.396Z,379.14
2023-04-30T08:34:30.613Z,378.85
2023-04-30T08:39:37.770Z,379.37
2023-04-30T08:44:45.077Z,379.06
2023-04-30T08:49:52.572Z,379.21
2023-04-30T08:54:59.533Z,379.81
2023-04-30T09:00:06.978Z,380.65
2023-04-30T09:05:14.342Z,380.04
2023-04-30T09:10:21.439Z,380.29
2023-04-30T09:15:28.630Z,379.97
2023-04-30T09:20:35.851Z,380.24
2023-04-30T09:25:43.044Z,380.58
2023-04-30T09:30:50.288Z,380.17
2023-04-30T09:35:57.622Z,380.49
2023-04-30T09:41:05.053Z,380.81
2023-04-30T09:46:12.255Z,380.96
2023-04-30T09:51:19.682Z,381.11
2023-04-30T09:56:26.905Z,380.68
2023-04-30T10:01:34.103Z,381.08
2023-04-30T10:06:41.557Z,381.79
2023-04-30T10:11:48.482Z,382.51
2023-04-30T10:16:55.723Z,382.80
2023-04-30T10:22:02.874Z,383.03
2023-04-30T10:27:10.121Z,383.29
2023-04-30T10:32:17.468Z,384.00
2023-04-30T10:37:24.558Z,384.21
2023-04-30T10:42:31.705Z,384.98
2023-04-30T10:47:38.892Z,385.51
2023-04-30T10:52:46.085Z,385.98
2023-04-30T10:57:53.234Z,386.61
2023-04-30T11:03:00.454Z,386.55
2023-04-30T11:08:07.648Z,387.05
2023-04-30T11:13:14.822Z,388.00
2023-04-30T11:18:22.023Z,388.36
2023-04-30T11:23:39.401Z,388.59
2023-04-30T11:28:36.494Z,388.51
2023-04-30T11:33:43.657Z,388.59
2023-04-30T11:38:50.943Z,388.71
2023-04-30T11:43:58.113Z,389.18
2023-04-30T11:49:05.297Z,390.01
2023-04-30T11:54:12.530Z,390.92
2023-04-30T11:59:19.693Z,391.46
2023-04-30T12:04:26.890Z,391.59
2023-04-30T12:09:34.366Z,391.02
2023-04-30T12:14:41.523Z,391.62
2023-04-30T12:19:48.720Z,391.92
2023-04-30T12:24:56.012Z,392.54
2023-04-30T12:30:03.112Z,394.04
2023-04-30T12:35:10.268Z,393.85
2023-04-30T12:40:17.459Z,394.40
2023-04-30T12:45:24.632Z,394.10
2023-04-30T12:50:31.821Z,394.53
2023-04-30T12:55:39.062Z,395.18
2023-04-30T13:00:46.204Z,395.23
2023-04-30T13:05:53.373Z,395.12
2023-04-30T13:11:00.561Z,396.15
2023-04-30T13:16:07.842Z,395.89
2023-04-30T13:21:14.938Z,395.47
2023-04-30T13:26:22.165Z,396.62
2023-04-30T13:31:29.462Z,396.83
2023-04-30T13:36:36.628Z,396.77
2023-04-30T13:41:43.966Z,397.41
2023-04-30T13:46:51.220Z,398.09
2023-04-30T13:51:58.449Z,397.70
2023-04-30T13:57:05.759Z,398.32
2023-04-30T14:02:12.978Z,398.47
2023-04-30T14:07:20.248Z,398.40
2023-04-30T14:12:27.515Z,398.44
2023-04-30T14:17:34.724Z,398.47
2023-04-30T14:22:41.860Z,398.33
2023-04-30T14:27:49.166Z,398.64
2023-04-30T14:32:56.356Z,397.98
2023-04-30T14:38:03.511Z,398.60
2023-04-30T14:43:10.735Z,398.89
2023-04-30T14:48:17.951Z,398.92
2023-04-30T14:53:25.146Z,399.38
2023-04-30T14:58:32.389Z,399.53
2023-04-30T15:03:39.685Z,399.71
2023-04-30T15:08:46.846Z,400.07
2023-04-30T15:13:54.047Z,400.57
2023-04-30T15:19:01.192Z,400.55
2023-04-30T15:24:08.398Z,400.67
2023-04-30T15:29:15.602Z,400.35
2023-04-30T15:34:22.773Z,400.77
2023-04-30T15:39:29.943Z,400.87
2023-04-30T15:44:37.221Z,401.58
2023-04-30T15:49:44.413Z,401.58
2023-04-30T15:54:51.693Z,401.61
2023-04-30T15:59:59.026Z,401.05
2023-04-30T16:05:06.177Z,401.38
2023-04-30T16:10:13.546Z,400.49
2023-04-30T16:15:20.875Z,400.69
2023-04-30T16:20:28.223Z,401.16
2023-04-30T16:25:35.466Z,400.85
2023-04-30T16:30:42.715Z,400.65
2023-04-30T16:35:49.890Z,401.01
2023-04-30T16:40:57.083Z,400.88
2023-04-30T16:46:04.697Z,401.03
2023-04-30T16:51:11.945Z,400.49
2023-04-30T16:56:19.141Z,400.56
2023-04-30T17:01:26.379Z,400.52
2023-04-30T17:06:33.678Z,400.06
2023-04-30T17:11:40.778Z,399.90
2023-04-30T17:16:48.349Z,399.21
2023-04-30T17:21:55.715Z,399.21
2023-04-30T17:27:02.982Z,398.76
2023-04-30T17:32:10.581Z,398.64
2023-04-30T17:37:17.926Z,398.28
2023-04-30T17:42:25.478Z,398.62
2023-04-30T17:47:32.962Z,398.49
2023-04-30T17:52:40.318Z,398.34
2023-04-30T17:57:47.820Z,397.82
2023-04-30T18:02:55.282Z,397.31
2023-04-30T18:08:02.504Z,397.34
2023-04-30T18:13:10.051Z,397.43
2023-04-30T18:18:17.471Z,397.42
2023-04-30T18:23:25.068Z,397.26
2023-04-30T18:28:32.506Z,397.50
2023-04-30T18:33:39.741Z,396.67
2023-04-30T18:38:47.213Z,396.60
2023-04-30T18:43:54.909Z,396.14
2023-04-30T18:49:02.410Z,395.33
2023-04-30T18:54:09.926Z,394.82
2023-04-30T18:59:17.204Z,394.44
2023-04-30T19:04:24.466Z,393.88
2023-04-30T19:09:31.886Z,393.66
2023-04-30T19:14:39.313Z,393.45
2023-04-30T19:19:46.890Z,393.26
2023-04-30T19:24:54.603Z,392.85
2023-04-30T19:30:02.241Z,392.38
2023-04-30T19:35:10.466Z,392.50
2023-04-30T19:40:18.776Z,392.10
2023-04-30T19:45:26.497Z,391.83
2023-04-30T19:50:33.931Z,391.82
2023-04-30T19:55:41.512Z,391.59
2023-04-30T20:00:48.763Z,391.81
2023-04-30T20:05:56.417Z,391.85
2023-04-30T20:11:04.060Z,391.75
2023-04-30T20:16:11.038Z,391.39
2023-04-30T20:21:20.571Z,391.43
2023-04-30T20:26:26.184Z,390.88
2023-04-30T20:31:34.508Z,391.64
2023-04-30T20:36:41.796Z,391.36
2023-04-30T20:41:49.153Z,391.30
2023-04-30T20:46:56.818Z,391.32
2023-04-30T20:52:04.430Z,391.13
2023-04-30T20:57:11.808Z,391.29
2023-04-30T21:02:19.122Z,391.41
2023-04-30T21:07:26.395Z,391.26
2023-04-30T21:12:33.667Z,391.35
2023-04-30T21:17:41.022Z,391.61
2023-04-30T21:22:48.330Z,391.69
2023-04-30T21:27:55.532Z,391.31
2023-04-30T21:33:02.833Z,391.33
2023-04-30T21:38:10.161Z,391.25
2023-04-30T21:43:17.390Z,391.68
2023-04-30T21:48:24.666Z,391.09
2023-04-30T21:53:32.071Z,391.68
2023-04-30T21:58:39.333Z,391.45
2023-04-30T22:03:46.554Z,391.79
2023-04-30T22:08:53.818Z,391.90
2023-04-30T22:14:00.988Z,392.11
2023-04-30T22:19:08.216Z,392.35
2023-04-30T22:24:15.461Z,392.12
2023-04-30T22:29:22.710Z,392.09
2023-04-30T22:34:29.971Z,392.06
2023-04-30T22:39:37.226Z,392.13
2023-04-30T22:44:44.375Z,392.16
2023-04-30T22:49:51.563Z,392.08
2023-04-30T22:54:58.760Z,392.24
2023-04-30T23:00:05.935Z,392.23
2023-04-30T23:05:13.139Z,392.59
2023-04-30T23:10:20.446Z,392.79
2023-04-30T23:15:27.688Z,392.36
2023-04-30T23:20:34.881Z,392.64
2023-04-30T23:25:42.179Z,392.35
2023-04-30T23:31:24.677Z,392.90
2023-04-30T23:36:33.103Z,393.05
2023-04-30T23:42:16.903Z,393.77
2023-04-30T23:48:06.977Z,393.51
2023-04-30T23:53:49.623Z,393.96
2023-04-30T23:59:15.055Z,394.12
